createdAt,value
2022-11-24T00:01:27.797Z,27.83
2022-11-24T00:04:03.149Z,25.55
2022-11-24T00:06:31.275Z,21.92
2022-11-24T00:08:58.321Z,25.42
2022-11-24T00:11:27.590Z,22.30
2022-11-24T00:13:54.764Z,20.85
2022-11-24T00:16:35.641Z,23.23
2022-11-24T00:19:08.008Z,21.38
2022-11-24T00:21:35.277Z,22.23
2022-11-24T00:24:02.264Z,23.67
2022-11-24T00:26:33.092Z,25.10
2022-11-24T00:29:02.473Z,23.40
2022-11-24T00:31:30.739Z,24.67
2022-11-24T00:34:00.599Z,24.42
2022-11-24T00:36:29.481Z,25.00
2022-11-24T00:39:05.327Z,25.35
2022-11-24T00:41:32.458Z,23.90
2022-11-24T00:43:59.938Z,23.90
2022-11-24T00:46:27.951Z,26.40
2022-11-24T00:48:55.016Z,26.38
2022-11-24T00:51:23.792Z,27.00
2022-11-24T00:53:50.408Z,27.45
2022-11-24T00:56:16.882Z,27.95
2022-11-24T00:58:43.425Z,30.83
2022-11-24T01:01:14.492Z,30.00
2022-11-24T01:03:42.516Z,30.25
2022-11-24T01:06:18.307Z,29.25
2022-11-24T01:08:45.188Z,30.33
2022-11-24T01:11:17.043Z,29.23
2022-11-24T01:13:45.876Z,29.80
2022-11-24T01:16:24.660Z,32.00
2022-11-24T01:18:51.535Z,29.60
2022-11-24T01:21:18.843Z,28.73
2022-11-24T01:23:45.375Z,29.13
2022-11-24T01:26:16.089Z,30.08
2022-11-24T01:28:47.200Z,30.38
2022-11-24T01:31:14.713Z,29.20
2022-11-24T01:33:41.307Z,29.00
2022-11-24T01:36:07.940Z,30.50
2022-11-24T01:38:34.730Z,29.63
2022-11-24T01:41:17.617Z,30.05
2022-11-24T01:43:45.399Z,30.02
2022-11-24T01:46:22.579Z,30.10
2022-11-24T01:48:58.208Z,33.28
2022-11-24T01:51:28.582Z,29.25
2022-11-24T01:54:00.587Z,29.27
2022-11-24T01:56:28.610Z,29.98
2022-11-24T01:58:59.054Z,33.13
2022-11-24T02:01:25.760Z,28.73
2022-11-24T02:03:52.787Z,29.73
2022-11-24T02:06:27.977Z,28.05
2022-11-24T02:09:03.487Z,29.05
2022-11-24T02:11:37.003Z,28.92
2022-11-24T02:14:06.062Z,30.80
2022-11-24T02:16:35.625Z,28.83
2022-11-24T02:19:08.089Z,28.13
2022-11-24T02:21:34.716Z,28.90
2022-11-24T02:24:16.089Z,30.50
2022-11-24T02:26:45.971Z,29.10
2022-11-24T02:29:14.234Z,29.30
2022-11-24T02:31:59.304Z,29.85
2022-11-24T02:34:25.864Z,30.30
2022-11-24T02:36:52.479Z,31.30
2022-11-24T02:39:19.156Z,31.48
2022-11-24T02:42:00.306Z,31.30
2022-11-24T02:44:33.058Z,32.05
2022-11-24T02:47:07.521Z,30.88
2022-11-24T02:49:34.088Z,31.98
2022-11-24T02:52:01.036Z,32.28
2022-11-24T02:54:27.724Z,32.42
2022-11-24T02:56:54.669Z,33.00
2022-11-24T02:59:21.563Z,32.38
2022-11-24T03:01:48.148Z,37.00
2022-11-24T03:04:14.764Z,32.70
2022-11-24T03:06:41.312Z,32.22
2022-11-24T03:09:07.837Z,32.95
2022-11-24T03:11:34.370Z,34.40
2022-11-24T03:14:01.773Z,32.03
2022-11-24T03:16:28.287Z,31.50
2022-11-24T03:18:54.936Z,31.65
2022-11-24T03:21:21.754Z,32.15
2022-11-24T03:23:52.695Z,31.98
2022-11-24T03:26:21.648Z,34.40
2022-11-24T03:28:48.318Z,32.45
2022-11-24T03:31:15.283Z,33.03
2022-11-24T03:33:44.998Z,31.42
2022-11-24T03:36:11.587Z,32.22
2022-11-24T03:38:38.128Z,36.00
2022-11-24T03:41:04.837Z,33.15
2022-11-24T03:43:31.825Z,34.35
2022-11-24T03:45:58.480Z,32.28
2022-11-24T03:48:25.149Z,32.72
2022-11-24T03:50:59.864Z,38.53
2022-11-24T03:53:28.756Z,32.80
2022-11-24T03:55:55.442Z,32.03
2022-11-24T03:58:22.352Z,33.55
2022-11-24T04:00:50.229Z,33.28
2022-11-24T04:03:16.781Z,32.50
2022-11-24T04:05:43.299Z,33.33
2022-11-24T04:08:09.808Z,34.72
2022-11-24T04:10:38.094Z,34.58
2022-11-24T04:13:10.572Z,33.25
2022-11-24T04:15:40.297Z,32.83
2022-11-24T04:18:07.339Z,33.60
2022-11-24T04:20:34.230Z,34.00
2022-11-24T04:23:00.823Z,34.25
2022-11-24T04:25:27.894Z,35.10
2022-11-24T04:27:56.340Z,31.88
2022-11-24T04:30:24.565Z,33.50
2022-11-24T04:32:51.356Z,37.17
2022-11-24T04:35:18.632Z,33.78
2022-11-24T04:37:45.537Z,32.88
2022-11-24T04:40:13.159Z,31.95
2022-11-24T04:42:39.642Z,33.08
2022-11-24T04:45:07.173Z,32.28
2022-11-24T04:47:34.531Z,33.05
2022-11-24T04:50:01.105Z,33.15
2022-11-24T04:52:27.598Z,40.85
2022-11-24T04:54:54.056Z,32.72
2022-11-24T04:57:23.847Z,32.72
2022-11-24T04:59:51.539Z,32.75
2022-11-24T05:02:18.791Z,32.38
2022-11-24T05:04:46.208Z,33.22
2022-11-24T05:07:18.878Z,34.97
2022-11-24T05:10:05.659Z,34.13
2022-11-24T05:12:32.263Z,31.40
2022-11-24T05:14:59.730Z,30.90
2022-11-24T05:17:30.710Z,34.95
2022-11-24T05:19:57.878Z,31.17
2022-11-24T05:22:24.683Z,37.13
2022-11-24T05:24:51.310Z,30.85
2022-11-24T05:27:17.726Z,31.48
2022-11-24T05:29:44.302Z,30.52
2022-11-24T05:32:10.766Z,30.38
2022-11-24T05:34:37.557Z,31.88
2022-11-24T05:37:04.131Z,32.38
2022-11-24T05:39:36.647Z,33.08
2022-11-24T05:42:25.867Z,31.52
2022-11-24T05:44:53.154Z,31.10
2022-11-24T05:47:20.332Z,33.38
2022-11-24T05:49:46.993Z,34.13
2022-11-24T05:52:14.369Z,35.28
2022-11-24T05:54:40.798Z,33.35
2022-11-24T05:57:07.591Z,37.65
2022-11-24T05:59:35.245Z,38.58
2022-11-24T06:02:01.850Z,42.17
2022-11-24T06:04:28.474Z,37.13
2022-11-24T06:06:54.892Z,41.35
2022-11-24T06:09:21.402Z,43.72
2022-11-24T06:11:48.449Z,37.05
2022-11-24T06:14:14.876Z,38.60
2022-11-24T06:16:41.369Z,41.25
2022-11-24T06:19:09.917Z,39.75
2022-11-24T06:21:36.549Z,39.75
2022-11-24T06:24:03.025Z,46.20
2022-11-24T06:26:29.548Z,43.75
2022-11-24T06:28:56.194Z,42.30
2022-11-24T06:31:23.121Z,39.83
2022-11-24T06:33:49.646Z,43.35
2022-11-24T06:36:16.492Z,39.90
2022-11-24T06:38:43.014Z,40.13
2022-11-24T06:41:15.733Z,37.30
2022-11-24T06:43:45.873Z,44.70
2022-11-24T06:46:13.236Z,38.40
2022-11-24T06:48:39.739Z,40.65
2022-11-24T06:51:08.583Z,36.85
2022-11-24T06:53:38.020Z,37.17
2022-11-24T06:56:12.100Z,43.72
2022-11-24T06:58:42.708Z,41.88
2022-11-24T07:01:09.164Z,44.13
2022-11-24T07:03:35.655Z,40.47
2022-11-24T07:06:02.136Z,47.70
2022-11-24T07:08:28.722Z,42.67
2022-11-24T07:10:55.134Z,41.92
2022-11-24T07:13:21.962Z,47.60
2022-11-24T07:15:48.439Z,43.03
2022-11-24T07:18:14.814Z,50.03
2022-11-24T07:20:41.344Z,46.22
2022-11-24T07:23:07.810Z,41.60
2022-11-24T07:25:34.263Z,39.17
2022-11-24T07:28:01.098Z,41.60
2022-11-24T07:30:28.326Z,43.53
2022-11-24T07:33:03.980Z,41.78
2022-11-24T07:35:30.777Z,47.63
2022-11-24T07:37:58.791Z,44.58
2022-11-24T07:40:26.895Z,47.83
2022-11-24T07:42:54.055Z,40.78
2022-11-24T07:45:20.974Z,43.55
2022-11-24T07:47:47.473Z,52.25
2022-11-24T07:50:14.169Z,41.90
2022-11-24T07:52:40.911Z,48.35
2022-11-24T07:55:08.085Z,46.25
2022-11-24T07:57:35.278Z,46.70
2022-11-24T08:00:02.079Z,48.15
2022-11-24T08:02:28.650Z,46.70
2022-11-24T08:04:55.210Z,42.70
2022-11-24T08:07:21.637Z,47.95
2022-11-24T08:09:50.346Z,43.45
2022-11-24T08:12:21.401Z,41.95
2022-11-24T08:14:51.037Z,43.75
2022-11-24T08:17:18.150Z,47.95
2022-11-24T08:19:45.235Z,44.22
2022-11-24T08:22:11.798Z,52.13
2022-11-24T08:24:38.561Z,45.58
2022-11-24T08:27:05.170Z,46.95
2022-11-24T08:29:32.869Z,51.15
2022-11-24T08:31:59.385Z,51.33
2022-11-24T08:34:28.647Z,52.33
2022-11-24T08:36:55.090Z,47.67
2022-11-24T08:39:21.502Z,58.10
2022-11-24T08:41:47.939Z,51.97
2022-11-24T08:44:18.073Z,54.08
2022-11-24T08:46:45.192Z,45.90
2022-11-24T08:49:13.540Z,49.30
2022-11-24T08:51:40.114Z,51.88
2022-11-24T08:54:06.813Z,55.80
2022-11-24T08:56:33.878Z,49.47
2022-11-24T08:59:00.857Z,50.92
2022-11-24T09:01:28.540Z,59.40
2022-11-24T09:03:55.572Z,55.35
2022-11-24T09:06:25.049Z,47.58
2022-11-24T09:08:53.772Z,56.13
2022-11-24T09:11:20.338Z,47.75
2022-11-24T09:13:46.758Z,50.92
2022-11-24T09:16:19.343Z,35.78
2022-11-24T09:18:46.713Z,38.38
2022-11-24T09:21:16.251Z,49.72
2022-11-24T09:23:44.515Z,40.22
2022-11-24T09:26:19.716Z,45.47
2022-11-24T09:28:47.032Z,40.45
2022-11-24T09:31:15.530Z,46.80
2022-11-24T09:33:42.898Z,43.00
2022-11-24T09:36:09.996Z,41.50
2022-11-24T09:38:37.052Z,37.08
2022-11-24T09:41:40.844Z,38.75
2022-11-24T09:44:24.127Z,49.38
2022-11-24T09:47:13.193Z,51.83
2022-11-24T09:49:58.718Z,30.73
2022-11-24T09:52:46.420Z,42.20
2022-11-24T09:55:34.757Z,42.35
2022-11-24T09:58:27.573Z,38.50
2022-11-24T10:00:56.239Z,41.67
2022-11-24T10:03:50.538Z,40.63
2022-11-24T10:06:19.576Z,51.65
2022-11-24T10:09:10.612Z,38.65
2022-11-24T10:11:50.396Z,43.33
2022-11-24T10:14:33.584Z,32.72
2022-11-24T10:17:13.967Z,38.58
2022-11-24T10:19:49.659Z,41.17
2022-11-24T10:22:34.603Z,33.45
2022-11-24T10:25:22.272Z,34.75
2022-11-24T10:28:17.855Z,49.47
2022-11-24T10:30:44.597Z,31.60
2022-11-24T10:33:28.710Z,32.15
2022-11-24T10:36:20.177Z,47.33
2022-11-24T10:39:02.809Z,43.70
2022-11-24T10:41:49.528Z,38.20
2022-11-24T10:44:16.178Z,40.15
2022-11-24T10:46:42.910Z,41.05
2022-11-24T10:49:18.803Z,33.90
2022-11-24T10:52:01.275Z,46.63
2022-11-24T10:54:28.070Z,44.25
2022-11-24T10:56:55.365Z,29.60
2022-11-24T10:59:24.781Z,33.22
2022-11-24T11:01:52.952Z,37.53
2022-11-24T11:04:33.143Z,36.80
2022-11-24T11:07:14.599Z,31.17
2022-11-24T11:09:41.242Z,40.80
2022-11-24T11:12:46.355Z,30.23
2022-11-24T11:15:24.700Z,35.70
2022-11-24T11:17:54.459Z,39.72
2022-11-24T11:20:35.041Z,35.78
2022-11-24T11:23:14.446Z,38.13
2022-11-24T11:25:41.270Z,47.50
2022-11-24T11:28:28.205Z,34.97
2022-11-24T11:31:22.424Z,34.45
2022-11-24T11:34:25.042Z,41.88
2022-11-24T11:36:59.844Z,55.58
2022-11-24T11:39:41.385Z,46.85
2022-11-24T11:45:50.976Z,39.53
2022-11-24T11:48:42.751Z,39.50
2022-11-24T11:51:42.450Z,33.80
2022-11-24T11:54:38.106Z,46.95
2022-11-24T11:57:11.652Z,45.20
2022-11-24T11:59:53.281Z,51.33
2022-11-24T12:02:28.885Z,38.80
2022-11-24T12:04:55.345Z,42.47
2022-11-24T12:07:27.868Z,36.47
2022-11-24T12:10:09.473Z,32.90
2022-11-24T12:12:57.400Z,33.38
2022-11-24T12:15:30.023Z,42.70
2022-11-24T12:18:55.743Z,44.83
2022-11-24T12:21:26.587Z,38.90
2022-11-24T12:24:36.610Z,30.92
2022-11-24T12:27:26.313Z,30.15
2022-11-24T12:30:09.576Z,33.00
2022-11-24T12:33:04.938Z,37.28
2022-11-24T12:35:47.726Z,35.50
2022-11-24T12:38:50.291Z,40.20
2022-11-24T12:41:42.666Z,29.83
2022-11-24T12:44:32.863Z,29.02
2022-11-24T12:47:22.867Z,36.67
2022-11-24T12:49:51.981Z,35.75
2022-11-24T12:52:23.180Z,39.80
2022-11-24T12:54:49.713Z,38.75
2022-11-24T12:57:36.394Z,42.42
2022-11-24T13:00:15.546Z,36.30
2022-11-24T13:02:57.534Z,36.75
2022-11-24T13:05:37.254Z,38.88
2022-11-24T13:08:05.263Z,29.65
2022-11-24T13:13:26.381Z,40.40
2022-11-24T13:16:07.057Z,28.67
2022-11-24T13:19:08.591Z,28.05
2022-11-24T13:21:41.401Z,33.30
2022-11-24T13:24:17.656Z,33.20
2022-11-24T13:26:51.264Z,31.48
2022-11-24T13:29:37.386Z,32.08
2022-11-24T13:32:06.579Z,40.67
2022-11-24T13:34:39.299Z,28.63
2022-11-24T13:37:34.896Z,27.73
2022-11-24T13:40:22.692Z,30.42
2022-11-24T13:42:55.216Z,28.23
2022-11-24T13:45:41.493Z,32.20
2022-11-24T13:48:20.342Z,31.83
2022-11-24T13:50:49.910Z,31.45
2022-11-24T13:53:43.918Z,34.15
2022-11-24T13:56:13.483Z,33.03
2022-11-24T13:58:43.494Z,39.08
2022-11-24T14:01:28.398Z,27.50
2022-11-24T14:07:09.381Z,32.22
2022-11-24T14:09:47.980Z,25.02
2022-11-24T14:12:22.214Z,26.63
2022-11-24T14:14:51.120Z,29.60
2022-11-24T14:17:23.777Z,42.33
2022-11-24T14:19:53.349Z,36.03
2022-11-24T14:22:21.541Z,31.10
2022-11-24T14:24:55.673Z,43.08
2022-11-24T14:27:29.146Z,32.38
2022-11-24T14:30:01.803Z,33.53
2022-11-24T14:32:28.895Z,35.53
2022-11-24T14:34:56.803Z,37.67
2022-11-24T14:37:23.498Z,28.73
2022-11-24T14:39:49.948Z,38.00
2022-11-24T14:42:25.278Z,35.03
2022-11-24T14:45:00.376Z,38.33
2022-11-24T14:47:38.886Z,32.22
2022-11-24T14:50:15.332Z,33.83
2022-11-24T14:52:56.402Z,39.15
2022-11-24T14:55:25.588Z,28.35
2022-11-24T14:57:52.122Z,33.20
2022-11-24T15:00:27.617Z,31.73
2022-11-24T15:02:55.261Z,33.95
2022-11-24T15:05:25.458Z,27.60
2022-11-24T15:10:35.137Z,40.95
2022-11-24T15:13:05.333Z,34.47
2022-11-24T15:15:58.983Z,30.77
2022-11-24T15:18:37.838Z,35.95
2022-11-24T15:21:04.466Z,37.90
2022-11-24T15:23:32.598Z,37.05
2022-11-24T15:26:02.122Z,39.90
2022-11-24T15:28:30.199Z,40.28
2022-11-24T15:31:01.329Z,53.70
2022-11-24T15:33:28.692Z,77.43
2022-11-24T15:35:55.227Z,63.28
2022-11-24T15:38:22.679Z,54.92
2022-11-24T15:40:51.861Z,43.13
2022-11-24T15:43:21.279Z,34.58
2022-11-24T15:45:47.751Z,28.67
2022-11-24T15:48:17.895Z,23.80
2022-11-24T15:50:46.221Z,34.63
2022-11-24T15:53:20.340Z,32.20
2022-11-24T15:55:47.427Z,36.72
2022-11-24T15:58:14.697Z,38.78
2022-11-24T16:00:41.825Z,28.27
2022-11-24T16:03:44.344Z,29.08
2022-11-24T16:05:57.037Z,24.83
2022-11-24T16:08:23.533Z,31.23
2022-11-24T16:10:50.018Z,25.13
2022-11-24T16:13:16.528Z,19.98
2022-11-24T16:15:42.981Z,25.85
2022-11-24T16:18:09.510Z,24.38
2022-11-24T16:20:36.137Z,22.27
2022-11-24T16:23:04.084Z,28.33
2022-11-24T16:25:30.735Z,25.17
2022-11-24T16:27:57.600Z,22.20
2022-11-24T16:30:24.030Z,27.42
2022-11-24T16:32:50.444Z,22.20
2022-11-24T16:35:17.059Z,27.13
2022-11-24T16:37:43.553Z,28.30
2022-11-24T16:40:10.439Z,18.60
2022-11-24T16:42:36.913Z,28.67
2022-11-24T16:45:04.101Z,28.02
2022-11-24T16:47:30.546Z,29.08
2022-11-24T16:49:57.102Z,22.83
2022-11-24T16:52:23.681Z,26.35
2022-11-24T16:54:50.228Z,27.10
2022-11-24T16:57:16.730Z,25.80
2022-11-24T16:59:43.489Z,29.13
2022-11-24T17:02:12.360Z,29.02
2022-11-24T17:04:39.135Z,27.67
2022-11-24T17:07:05.592Z,26.90
2022-11-24T17:09:37.385Z,34.15
2022-11-24T17:12:06.767Z,29.25
2022-11-24T17:14:33.461Z,26.15
2022-11-24T17:17:00.219Z,40.15
2022-11-24T17:19:27.272Z,35.08
2022-11-24T17:21:54.523Z,48.88
2022-11-24T17:24:20.974Z,50.03
2022-11-24T17:26:50.006Z,46.53
2022-11-24T17:29:16.416Z,50.28
2022-11-24T17:31:42.880Z,56.42
2022-11-24T17:34:11.414Z,55.90
2022-11-24T17:36:38.680Z,72.97
2022-11-24T17:39:07.079Z,63.78
2022-11-24T17:41:34.144Z,53.78
2022-11-24T17:44:00.691Z,60.97
2022-11-24T17:46:28.831Z,47.35
2022-11-24T17:48:55.771Z,40.25
2022-11-24T17:51:24.540Z,36.58
2022-11-24T17:53:52.695Z,37.08
2022-11-24T17:56:23.335Z,42.95
2022-11-24T17:58:54.402Z,45.30
2022-11-24T18:01:21.965Z,44.45
2022-11-24T18:03:53.209Z,52.75
2022-11-24T18:06:20.597Z,36.63
2022-11-24T18:08:47.630Z,36.58
2022-11-24T18:11:19.816Z,38.05
2022-11-24T18:13:58.446Z,35.20
2022-11-24T18:16:28.189Z,37.72
2022-11-24T18:19:07.838Z,39.03
2022-11-24T18:21:39.391Z,42.50
2022-11-24T18:24:06.982Z,45.00
2022-11-24T18:26:33.487Z,34.05
2022-11-24T18:28:59.939Z,38.03
2022-11-24T18:31:26.530Z,31.50
2022-11-24T18:33:53.094Z,38.08
2022-11-24T18:36:23.556Z,38.50
2022-11-24T18:38:53.845Z,34.88
2022-11-24T18:41:21.534Z,31.83
2022-11-24T18:43:48.026Z,36.90
2022-11-24T18:46:17.093Z,31.00
2022-11-24T18:48:44.872Z,42.28
2022-11-24T18:51:14.958Z,44.75
2022-11-24T18:53:42.487Z,35.88
2022-11-24T18:56:13.576Z,42.95
2022-11-24T18:58:40.027Z,35.53
2022-11-24T19:01:16.504Z,39.35
2022-11-24T19:03:49.346Z,34.63
2022-11-24T19:06:21.260Z,37.67
2022-11-24T19:08:48.954Z,31.55
2022-11-24T19:11:21.220Z,37.05
2022-11-24T19:13:49.052Z,32.92
2022-11-24T19:16:17.312Z,34.80
2022-11-24T19:18:47.515Z,36.60
2022-11-24T19:21:17.885Z,35.67
2022-11-24T19:23:44.647Z,43.15
2022-11-24T19:26:11.358Z,38.95
2022-11-24T19:28:37.747Z,35.50
2022-11-24T19:31:07.779Z,37.70
2022-11-24T19:33:34.926Z,34.58
2022-11-24T19:36:03.828Z,39.22
2022-11-24T19:38:32.114Z,37.25
2022-11-24T19:41:09.437Z,42.88
2022-11-24T19:43:36.143Z,42.65
2022-11-24T19:46:10.641Z,32.70
2022-11-24T19:48:43.161Z,40.28
2022-11-24T19:51:15.098Z,40.58
2022-11-24T19:53:41.760Z,32.28
2022-11-24T19:56:11.637Z,41.67
2022-11-24T19:58:38.923Z,33.67
2022-11-24T20:01:16.409Z,36.97
2022-11-24T20:03:44.297Z,39.78
2022-11-24T20:06:13.098Z,35.70
2022-11-24T20:08:40.783Z,40.85
2022-11-24T20:11:16.499Z,43.55
2022-11-24T20:13:45.143Z,35.00
2022-11-24T20:16:14.599Z,35.47
2022-11-24T20:18:44.572Z,32.65
2022-11-24T20:21:21.652Z,37.15
2022-11-24T20:23:55.165Z,36.00
2022-11-24T20:26:23.244Z,38.92
2022-11-24T20:28:51.549Z,35.80
2022-11-24T20:31:21.760Z,32.97
2022-11-24T20:36:18.424Z,30.50
2022-11-24T20:41:20.229Z,30.92
2022-11-24T20:43:47.401Z,29.40
2022-11-24T20:46:16.908Z,41.10
2022-11-24T20:48:44.092Z,35.42
2022-11-24T20:51:13.372Z,34.28
2022-11-24T20:53:40.678Z,34.90
2022-11-24T20:56:10.875Z,33.08
2022-11-24T21:01:09.842Z,32.83
2022-11-24T21:03:42.576Z,38.35
2022-11-24T21:06:10.692Z,37.17
2022-11-24T21:08:38.970Z,32.53
2022-11-24T21:11:07.344Z,35.72
2022-11-24T21:13:35.333Z,41.40
2022-11-24T21:16:18.260Z,35.67
2022-11-24T21:18:46.861Z,33.08
2022-11-24T21:21:14.471Z,37.47
2022-11-24T21:23:40.886Z,36.58
2022-11-24T21:26:11.670Z,36.63
2022-11-24T21:28:42.020Z,35.55
2022-11-24T21:31:14.660Z,43.13
2022-11-24T21:33:43.059Z,43.33
2022-11-24T21:36:09.559Z,42.33
2022-11-24T21:38:36.123Z,49.70
2022-11-24T21:41:05.557Z,46.05
2022-11-24T21:43:32.937Z,47.25
2022-11-24T21:46:03.478Z,42.72
2022-11-24T21:48:31.241Z,46.35
2022-11-24T21:50:59.499Z,42.17
2022-11-24T21:53:26.861Z,43.97
2022-11-24T21:55:58.176Z,41.38
2022-11-24T21:58:25.556Z,43.15
2022-11-24T22:00:52.871Z,42.38
2022-11-24T22:03:20.483Z,46.17
2022-11-24T22:05:54.295Z,50.85
2022-11-24T22:08:21.569Z,43.70
2022-11-24T22:10:48.218Z,46.22
2022-11-24T22:13:15.066Z,43.33
2022-11-24T22:15:41.538Z,53.15
2022-11-24T22:18:08.103Z,44.50
2022-11-24T22:20:35.363Z,41.67
2022-11-24T22:23:01.885Z,42.75
2022-11-24T22:25:28.290Z,47.28
2022-11-24T22:27:54.738Z,42.83
2022-11-24T22:30:21.177Z,43.92
2022-11-24T22:32:47.597Z,42.22
2022-11-24T22:35:14.129Z,47.05
2022-11-24T22:37:40.517Z,42.28
2022-11-24T22:40:07.880Z,47.03
2022-11-24T22:42:34.325Z,47.70
2022-11-24T22:45:00.689Z,47.80
2022-11-24T22:47:27.397Z,53.25
2022-11-24T22:49:53.880Z,54.78
2022-11-24T22:52:20.285Z,54.83
2022-11-24T22:54:46.774Z,49.35
2022-11-24T22:57:13.151Z,44.80
2022-11-24T22:59:39.543Z,55.25
2022-11-24T23:02:06.004Z,52.10
2022-11-24T23:04:32.500Z,54.60
2022-11-24T23:06:58.953Z,54.15
2022-11-24T23:09:25.356Z,51.92
2022-11-24T23:11:51.827Z,49.33
2022-11-24T23:14:19.165Z,48.10
2022-11-24T23:16:45.660Z,53.05
2022-11-24T23:19:12.480Z,51.95
2022-11-24T23:21:39.207Z,55.20
2022-11-24T23:24:06.457Z,53.85
2022-11-24T23:26:36.168Z,52.40
2022-11-24T23:29:04.059Z,61.22
2022-11-24T23:31:31.011Z,48.65
2022-11-24T23:34:02.521Z,65.93
2022-11-24T23:36:30.115Z,59.13
2022-11-24T23:39:00.796Z,56.13
2022-11-24T23:41:29.914Z,66.18
2022-11-24T23:43:56.433Z,54.83
2022-11-24T23:46:25.498Z,58.67
2022-11-24T23:48:53.743Z,57.67
2022-11-24T23:51:25.847Z,51.92
2022-11-24T23:53:53.054Z,57.40
2022-11-24T23:56:21.422Z,54.25
2022-11-24T23:58:47.936Z,62.15
